createdAt,value
2023-11-02T00:02:30.867Z,68.79
2023-11-02T00:05:00.080Z,69.01
2023-11-02T00:07:32.768Z,69.05
2023-11-02T00:10:04.647Z,69.02
2023-11-02T00:12:35.414Z,68.93
2023-11-02T00:15:08.362Z,68.95
2023-11-02T00:17:52.338Z,68.80
2023-11-02T00:20:39.201Z,68.75
2023-11-02T00:23:13.856Z,68.88
2023-11-02T00:25:51.109Z,68.70
2023-11-02T00:28:22.079Z,68.32
2023-11-02T00:30:53.136Z,68.79
2023-11-02T00:33:24.795Z,68.46
2023-11-02T00:35:56.275Z,68.71
2023-11-02T00:38:29.553Z,67.89
2023-11-02T00:41:00.781Z,68.22
2023-11-02T00:43:32.352Z,68.49
2023-11-02T00:46:03.338Z,68.30
2023-11-02T00:48:35.966Z,68.42
2023-11-02T00:51:21.029Z,68.76
2023-11-02T00:53:55.613Z,69.25
2023-11-02T00:56:29.687Z,69.18
2023-11-02T00:59:01.563Z,69.20
2023-11-02T01:01:33.042Z,69.01
2023-11-02T01:04:08.598Z,68.55
2023-11-02T01:06:39.873Z,68.84
2023-11-02T01:09:45.751Z,68.60
2023-11-02T01:12:25.658Z,68.13
2023-11-02T01:14:57.026Z,68.07
2023-11-02T01:17:34.083Z,67.99
2023-11-02T01:20:11.290Z,67.84
2023-11-02T01:23:04.317Z,67.69
2023-11-02T01:25:45.839Z,67.77
2023-11-02T01:28:19.638Z,67.69
2023-11-02T01:31:16.194Z,67.54
2023-11-02T01:34:01.452Z,67.56
2023-11-02T01:36:37.689Z,67.54
2023-11-02T01:39:47.752Z,67.63
2023-11-02T01:42:27.241Z,67.38
2023-11-02T01:45:10.405Z,67.49
2023-11-02T01:48:00.355Z,67.46
2023-11-02T01:50:36.370Z,67.33
2023-11-02T01:53:26.418Z,67.36
2023-11-02T01:56:17.811Z,67.25
2023-11-02T01:59:05.181Z,67.10
2023-11-02T02:01:44.621Z,67.18
2023-11-02T02:04:24.130Z,67.11
2023-11-02T02:07:06.819Z,66.83
2023-11-02T02:10:06.705Z,66.89
2023-11-02T02:12:51.087Z,67.07
2023-11-02T02:15:27.629Z,66.80
2023-11-02T02:18:06.799Z,66.64
2023-11-02T02:20:39.694Z,66.59
2023-11-02T02:23:16.959Z,66.81
2023-11-02T02:26:00.490Z,66.77
2023-11-02T02:29:06.602Z,66.81
2023-11-02T02:32:00.237Z,66.86
2023-11-02T02:35:02.588Z,66.74
2023-11-02T02:37:36.681Z,66.81
2023-11-02T02:40:14.280Z,66.77
2023-11-02T02:42:47.760Z,66.88
2023-11-02T02:45:19.194Z,67.04
2023-11-02T02:47:53.051Z,66.69
2023-11-02T02:50:29.400Z,66.88
2023-11-02T02:53:02.012Z,66.84
2023-11-02T02:55:35.768Z,66.79
2023-11-02T02:58:10.878Z,66.71
2023-11-02T03:00:44.360Z,66.87
2023-11-02T03:03:17.506Z,66.98
2023-11-02T03:05:48.366Z,67.07
2023-11-02T03:08:20.130Z,67.08
2023-11-02T03:10:53.193Z,67.16
2023-11-02T03:13:29.539Z,67.06
2023-11-02T03:16:08.750Z,67.09
2023-11-02T03:18:41.075Z,66.96
2023-11-02T03:21:12.343Z,67.17
2023-11-02T03:23:59.677Z,67.20
2023-11-02T03:26:39.538Z,67.15
2023-11-02T03:29:20.248Z,66.96
2023-11-02T03:31:59.609Z,67.06
2023-11-02T03:34:39.434Z,67.16
2023-11-02T03:37:17.923Z,67.45
2023-11-02T03:40:09.241Z,67.72
2023-11-02T03:42:51.459Z,67.60
2023-11-02T03:45:34.124Z,68.02
2023-11-02T03:48:13.253Z,68.40
2023-11-02T03:50:53.279Z,68.36
2023-11-02T03:53:36.087Z,68.65
2023-11-02T03:56:19.215Z,69.10
2023-11-02T03:59:03.144Z,68.59
2023-11-02T04:01:41.453Z,68.84
2023-11-02T04:04:17.235Z,68.79
2023-11-02T04:06:54.114Z,69.07
2023-11-02T04:09:27.003Z,69.30
2023-11-02T04:12:15.318Z,69.34
2023-11-02T04:14:46.795Z,69.53
2023-11-02T04:17:17.565Z,69.57
2023-11-02T04:19:48.450Z,69.34
2023-11-02T04:22:19.302Z,69.39
2023-11-02T04:24:50.216Z,69.44
2023-11-02T04:27:21.074Z,69.35
2023-11-02T04:29:51.929Z,69.44
2023-11-02T04:32:22.903Z,69.45
2023-11-02T04:34:54.000Z,69.32
2023-11-02T04:37:24.604Z,69.22
2023-11-02T04:39:55.610Z,69.41
2023-11-02T04:42:26.359Z,69.27
2023-11-02T04:44:57.402Z,69.29
2023-11-02T04:47:28.163Z,69.30
2023-11-02T04:50:00.248Z,69.43
2023-11-02T04:52:39.192Z,69.30
2023-11-02T04:55:10.783Z,69.61
2023-11-02T04:57:41.600Z,69.31
2023-11-02T05:00:15.131Z,69.31
2023-11-02T05:02:46.037Z,69.37
2023-11-02T05:05:17.009Z,69.34
2023-11-02T05:07:47.641Z,69.28
2023-11-02T05:10:18.269Z,69.07
2023-11-02T05:12:48.981Z,69.19
2023-11-02T05:15:19.654Z,69.06
2023-11-02T05:17:50.358Z,68.99
2023-11-02T05:20:24.783Z,69.25
2023-11-02T05:22:55.450Z,69.06
2023-11-02T05:25:26.182Z,69.25
2023-11-02T05:27:56.945Z,69.35
2023-11-02T05:30:27.827Z,68.95
2023-11-02T05:32:58.473Z,69.17
2023-11-02T05:35:29.303Z,69.58
2023-11-02T05:38:01.559Z,69.49
2023-11-02T05:40:32.230Z,69.44
2023-11-02T05:43:02.953Z,69.54
2023-11-02T05:45:36.563Z,69.43
2023-11-02T05:48:08.078Z,69.40
2023-11-02T05:50:40.051Z,69.51
2023-11-02T05:53:10.800Z,69.57
2023-11-02T05:55:41.667Z,69.70
2023-11-02T05:58:12.462Z,69.82
2023-11-02T06:00:43.266Z,69.82
2023-11-02T06:03:14.070Z,69.75
2023-11-02T06:05:44.841Z,69.40
2023-11-02T06:08:15.850Z,69.57
2023-11-02T06:10:47.564Z,69.37
2023-11-02T06:13:18.312Z,69.58
2023-11-02T06:15:49.143Z,69.60
2023-11-02T06:18:19.906Z,69.57
2023-11-02T06:20:50.607Z,69.58
2023-11-02T06:23:25.546Z,69.61
2023-11-02T06:25:56.418Z,70.14
2023-11-02T06:28:30.818Z,70.05
2023-11-02T06:31:06.755Z,70.68
2023-11-02T06:33:38.319Z,70.70
2023-11-02T06:36:10.748Z,70.31
2023-11-02T06:38:41.971Z,70.78
2023-11-02T06:41:12.852Z,70.34
2023-11-02T06:43:46.090Z,70.58
2023-11-02T06:46:16.865Z,70.10
2023-11-02T06:48:50.629Z,70.41
2023-11-02T06:51:22.353Z,70.01
2023-11-02T06:53:53.068Z,70.03
2023-11-02T06:56:26.715Z,70.38
2023-11-02T06:58:57.419Z,69.93
2023-11-02T07:01:28.297Z,69.72
2023-11-02T07:03:59.659Z,69.72
2023-11-02T07:06:30.398Z,69.22
2023-11-02T07:09:01.242Z,68.78
2023-11-02T07:11:32.770Z,69.33
2023-11-02T07:14:03.933Z,69.03
2023-11-02T07:16:34.635Z,68.27
2023-11-02T07:19:06.003Z,68.10
2023-11-02T07:21:36.802Z,67.41
2023-11-02T07:24:09.192Z,66.75
2023-11-02T07:26:40.479Z,66.11
2023-11-02T07:29:11.302Z,66.28
2023-11-02T07:31:46.142Z,66.27
2023-11-02T07:34:19.338Z,66.27
2023-11-02T07:36:50.827Z,66.21
2023-11-02T07:39:21.598Z,66.39
2023-11-02T07:41:52.396Z,66.55
2023-11-02T07:44:23.596Z,66.61
2023-11-02T07:46:54.242Z,66.52
2023-11-02T07:49:25.224Z,66.59
2023-11-02T07:51:55.874Z,66.56
2023-11-02T07:54:26.503Z,66.75
2023-11-02T07:56:57.141Z,66.57
2023-11-02T07:59:27.814Z,66.37
2023-11-02T08:01:58.669Z,66.15
2023-11-02T08:04:29.407Z,66.18
2023-11-02T08:07:00.418Z,66.33
2023-11-02T08:09:31.190Z,66.71
2023-11-02T08:12:01.943Z,66.79
2023-11-02T08:14:32.705Z,66.59
2023-11-02T08:17:04.860Z,66.47
2023-11-02T08:19:35.935Z,66.29
2023-11-02T08:22:07.209Z,66.17
2023-11-02T08:24:39.132Z,65.84
2023-11-02T08:27:12.599Z,65.45
2023-11-02T08:29:43.546Z,65.54
2023-11-02T08:32:14.270Z,65.38
2023-11-02T08:34:46.557Z,65.47
2023-11-02T08:37:17.173Z,65.47
2023-11-02T08:39:47.924Z,65.50
2023-11-02T08:42:19.074Z,65.64
2023-11-02T08:44:50.133Z,65.67
2023-11-02T08:47:20.746Z,65.66
2023-11-02T08:49:51.475Z,65.65
2023-11-02T08:52:22.650Z,65.57
2023-11-02T08:54:53.398Z,65.73
2023-11-02T08:57:24.423Z,65.78
2023-11-02T08:59:57.424Z,65.78
2023-11-02T09:02:30.911Z,65.76
2023-11-02T09:05:00.975Z,65.74
2023-11-02T09:07:32.400Z,65.82
2023-11-02T09:10:04.512Z,65.86
2023-11-02T09:12:35.300Z,65.89
2023-11-02T09:15:07.391Z,66.06
2023-11-02T09:17:38.044Z,66.24
2023-11-02T09:20:11.641Z,66.44
2023-11-02T09:22:44.445Z,66.60
2023-11-02T09:25:15.182Z,66.62
2023-11-02T09:27:48.962Z,66.57
2023-11-02T09:30:20.319Z,66.19
2023-11-02T09:32:51.117Z,65.81
2023-11-02T09:35:23.743Z,65.08
2023-11-02T09:37:52.885Z,64.57
2023-11-02T09:40:23.625Z,64.10
2023-11-02T09:42:54.594Z,63.92
2023-11-02T09:45:25.452Z,64.19
2023-11-02T09:47:57.664Z,64.15
2023-11-02T09:50:28.912Z,63.77
2023-11-02T09:53:02.161Z,63.49
2023-11-02T09:55:34.205Z,63.21
2023-11-02T09:58:06.568Z,62.54
2023-11-02T10:00:40.040Z,61.99
2023-11-02T10:03:12.462Z,62.19
2023-11-02T10:05:43.429Z,61.94
2023-11-02T10:08:17.553Z,61.57
2023-11-02T10:10:49.457Z,61.44
2023-11-02T10:13:21.089Z,61.68
2023-11-02T10:15:53.105Z,61.90
2023-11-02T10:18:28.012Z,62.12
2023-11-02T10:21:05.213Z,62.27
2023-11-02T10:23:55.374Z,62.21
2023-11-02T10:26:29.825Z,62.24
2023-11-02T10:29:03.458Z,62.31
2023-11-02T10:31:35.497Z,62.12
2023-11-02T10:34:10.564Z,62.30
2023-11-02T10:36:41.696Z,62.47
2023-11-02T10:39:14.178Z,62.67
2023-11-02T10:41:43.638Z,62.69
2023-11-02T10:44:16.331Z,62.56
2023-11-02T10:46:48.606Z,62.25
2023-11-02T10:49:20.418Z,62.18
2023-11-02T10:51:54.701Z,62.08
2023-11-02T10:54:34.934Z,62.33
2023-11-02T10:57:15.892Z,62.38
2023-11-02T10:59:47.544Z,62.30
2023-11-02T11:02:20.370Z,62.45
2023-11-02T11:04:51.748Z,62.17
2023-11-02T11:07:23.552Z,62.13
2023-11-02T11:09:55.921Z,62.32
2023-11-02T11:12:27.573Z,62.38
2023-11-02T11:15:00.296Z,61.97
2023-11-02T11:17:31.021Z,62.03
2023-11-02T11:20:02.118Z,61.61
2023-11-02T11:22:36.546Z,61.34
2023-11-02T11:25:08.667Z,61.49
2023-11-02T11:27:40.876Z,61.47
2023-11-02T11:30:39.245Z,61.49
2023-11-02T11:33:39.541Z,61.62
2023-11-02T11:36:28.589Z,61.48
2023-11-02T11:38:59.921Z,61.46
2023-11-02T11:41:47.671Z,61.32
2023-11-02T11:44:22.293Z,61.41
2023-11-02T11:46:56.935Z,61.22
2023-11-02T11:49:49.601Z,61.06
2023-11-02T11:52:29.341Z,61.17
2023-11-02T11:55:00.057Z,60.93
2023-11-02T11:57:56.301Z,60.91
2023-11-02T12:00:28.734Z,61.09
2023-11-02T12:03:05.508Z,61.15
2023-11-02T12:05:57.204Z,61.34
2023-11-02T12:08:28.241Z,61.33
2023-11-02T12:11:01.253Z,61.50
2023-11-02T12:13:32.187Z,61.29
2023-11-02T12:16:05.318Z,61.14
2023-11-02T12:18:38.442Z,61.11
2023-11-02T12:21:18.493Z,61.29
2023-11-02T12:23:51.551Z,61.51
2023-11-02T12:26:25.525Z,61.54
2023-11-02T12:29:00.860Z,61.32
2023-11-02T12:31:34.480Z,61.35
2023-11-02T12:34:09.585Z,61.44
2023-11-02T12:36:42.697Z,61.42
2023-11-02T12:39:16.795Z,61.03
2023-11-02T12:41:49.010Z,60.88
2023-11-02T12:44:21.369Z,60.57
2023-11-02T12:46:54.459Z,60.68
2023-11-02T12:49:27.743Z,60.56
2023-11-02T12:52:10.959Z,60.76
2023-11-02T12:54:41.882Z,60.74
2023-11-02T12:57:13.652Z,60.94
2023-11-02T12:59:47.498Z,61.03
2023-11-02T13:02:28.335Z,61.00
2023-11-02T13:05:00.768Z,61.09
2023-11-02T13:07:32.493Z,61.18
2023-11-02T13:10:07.751Z,61.52
2023-11-02T13:12:40.765Z,61.64
2023-11-02T13:15:14.042Z,61.89
2023-11-02T13:17:48.557Z,61.98
2023-11-02T13:20:20.295Z,62.20
2023-11-02T13:22:51.942Z,62.56
2023-11-02T13:25:22.906Z,62.54
2023-11-02T13:27:55.594Z,62.50
2023-11-02T13:30:28.077Z,62.81
2023-11-02T13:32:59.359Z,62.97
2023-11-02T13:35:31.535Z,62.94
2023-11-02T13:38:02.264Z,63.05
2023-11-02T13:40:33.441Z,63.16
2023-11-02T13:43:04.124Z,63.20
2023-11-02T13:45:36.888Z,63.56
2023-11-02T13:48:08.197Z,63.71
2023-11-02T13:50:39.270Z,63.72
2023-11-02T13:53:10.033Z,63.82
2023-11-02T13:55:43.768Z,63.83
2023-11-02T13:58:15.274Z,64.00
2023-11-02T14:00:46.310Z,64.24
2023-11-02T14:03:17.468Z,64.28
2023-11-02T14:05:49.100Z,64.62
2023-11-02T14:08:23.069Z,64.62
2023-11-02T14:10:54.276Z,64.82
2023-11-02T14:13:26.062Z,64.90
2023-11-02T14:15:56.759Z,64.86
2023-11-02T14:18:27.550Z,65.00
2023-11-02T14:20:59.389Z,65.14
2023-11-02T14:23:30.353Z,65.15
2023-11-02T14:26:01.199Z,65.36
2023-11-02T14:28:33.667Z,65.27
2023-11-02T14:31:04.741Z,65.13
2023-11-02T14:33:36.368Z,65.18
2023-11-02T14:36:10.257Z,65.19
2023-11-02T14:38:41.280Z,65.26
2023-11-02T14:41:13.376Z,65.35
2023-11-02T14:43:44.094Z,65.28
2023-11-02T14:46:14.848Z,65.28
2023-11-02T14:48:45.601Z,65.22
2023-11-02T14:51:16.646Z,65.33
2023-11-02T14:53:47.325Z,65.29
2023-11-02T14:56:19.408Z,65.32
2023-11-02T14:58:50.264Z,65.47
2023-11-02T15:01:20.978Z,65.58
2023-11-02T15:03:52.100Z,65.71
2023-11-02T15:06:23.559Z,65.78
2023-11-02T15:09:01.484Z,65.80
2023-11-02T15:11:38.795Z,65.97
2023-11-02T15:14:15.558Z,66.01
2023-11-02T15:16:47.843Z,66.00
2023-11-02T15:19:18.882Z,66.14
2023-11-02T15:21:49.752Z,66.20
2023-11-02T15:24:22.355Z,66.41
2023-11-02T15:26:52.351Z,66.38
2023-11-02T15:29:23.070Z,66.47
2023-11-02T15:31:54.119Z,66.50
2023-11-02T15:34:56.533Z,66.65
2023-11-02T15:37:49.927Z,66.62
2023-11-02T15:40:37.994Z,66.75
2023-11-02T15:43:31.417Z,66.72
2023-11-02T15:46:30.683Z,66.87
2023-11-02T15:49:33.512Z,66.78
2023-11-02T15:52:43.423Z,66.99
2023-11-02T15:58:36.623Z,66.99
2023-11-02T16:04:41.320Z,67.02
2023-11-02T16:08:25.771Z,67.14
2023-11-02T16:11:15.960Z,67.11
2023-11-02T16:17:24.395Z,67.10
2023-11-02T16:19:55.362Z,67.00
2023-11-02T16:26:30.191Z,67.18
2023-11-02T16:30:25.931Z,67.29
2023-11-02T16:32:56.968Z,67.30
2023-11-02T16:35:56.503Z,67.35
2023-11-02T16:42:20.455Z,67.62
2023-11-02T16:45:42.068Z,67.99
2023-11-02T16:48:23.041Z,68.55
2023-11-02T16:51:23.844Z,68.96
2023-11-02T16:57:13.624Z,70.23
2023-11-02T16:59:45.325Z,70.70
2023-11-02T17:05:53.413Z,71.65
2023-11-02T17:08:47.213Z,71.95
2023-11-02T17:11:29.073Z,72.40
2023-11-02T17:14:32.429Z,72.72
2023-11-02T17:17:11.036Z,73.12
2023-11-02T17:19:45.056Z,73.36
2023-11-02T17:22:24.929Z,73.66
2023-11-02T17:24:56.260Z,74.02
2023-11-02T17:27:27.097Z,74.26
2023-11-02T17:29:58.882Z,74.43
2023-11-02T17:32:57.705Z,74.69
2023-11-02T17:35:53.693Z,75.03
2023-11-02T17:38:34.201Z,75.20
2023-11-02T17:41:07.947Z,75.34
2023-11-02T17:43:41.112Z,75.58
2023-11-02T17:46:15.858Z,76.11
2023-11-02T17:49:20.884Z,76.16
2023-11-02T17:51:54.794Z,76.86
2023-11-02T17:55:12.024Z,76.83
2023-11-02T17:58:17.349Z,77.09
2023-11-02T18:04:02.903Z,77.34
2023-11-02T18:06:34.076Z,77.44
2023-11-02T18:09:05.691Z,77.61
2023-11-02T18:11:36.385Z,77.70
2023-11-02T18:14:07.428Z,77.75
2023-11-02T18:16:38.406Z,77.84
2023-11-02T18:19:09.156Z,77.97
2023-11-02T18:21:40.726Z,78.06
2023-11-02T18:24:12.491Z,77.98
2023-11-02T18:26:44.027Z,78.16
2023-11-02T18:29:14.846Z,78.08
2023-11-02T18:31:45.646Z,78.33
2023-11-02T18:34:17.863Z,78.36
2023-11-02T18:36:49.668Z,78.42
2023-11-02T18:39:20.370Z,78.49
2023-11-02T18:41:51.325Z,78.59
2023-11-02T18:44:22.223Z,78.64
2023-11-02T18:46:53.077Z,78.58
2023-11-02T18:49:24.655Z,78.63
2023-11-02T18:51:55.636Z,78.76
2023-11-02T18:54:28.184Z,78.73
2023-11-02T18:56:58.884Z,78.72
2023-11-02T18:59:29.546Z,78.68
2023-11-02T19:02:00.237Z,78.75
2023-11-02T19:04:31.237Z,78.87
2023-11-02T19:07:01.942Z,78.82
2023-11-02T19:09:32.725Z,78.89
2023-11-02T19:12:03.519Z,78.81
2023-11-02T19:14:35.619Z,78.90
2023-11-02T19:17:07.018Z,78.79
2023-11-02T19:19:39.366Z,78.84
2023-11-02T19:22:10.554Z,78.81
2023-11-02T19:24:44.449Z,78.68
2023-11-02T19:27:17.105Z,78.63
2023-11-02T19:29:48.778Z,78.61
2023-11-02T19:32:21.475Z,78.44
2023-11-02T19:34:52.620Z,78.42
2023-11-02T19:37:23.430Z,78.39
2023-11-02T19:39:54.497Z,78.46
2023-11-02T19:42:25.439Z,78.44
2023-11-02T19:44:56.245Z,78.38
2023-11-02T19:47:27.002Z,78.38
2023-11-02T19:49:58.027Z,78.40
2023-11-02T19:52:28.763Z,78.43
2023-11-02T19:54:59.545Z,78.57
2023-11-02T19:57:30.425Z,78.70
2023-11-02T20:00:01.373Z,78.80
2023-11-02T20:02:32.062Z,78.85
2023-11-02T20:05:04.172Z,78.94
2023-11-02T20:07:35.477Z,78.92
2023-11-02T20:10:07.989Z,79.04
2023-11-02T20:12:40.048Z,79.18
2023-11-02T20:15:14.146Z,79.36
2023-11-02T20:17:44.961Z,79.61
2023-11-02T20:20:16.527Z,79.67
2023-11-02T20:22:47.349Z,79.93
2023-11-02T20:25:19.692Z,79.96
2023-11-02T20:27:50.435Z,79.99
2023-11-02T20:30:21.247Z,80.15
2023-11-02T20:32:51.895Z,80.21
2023-11-02T20:35:22.627Z,80.20
2023-11-02T20:37:53.280Z,80.20
2023-11-02T20:40:23.912Z,80.34
2023-11-02T20:42:54.847Z,80.26
2023-11-02T20:45:25.687Z,80.22
2023-11-02T20:47:56.580Z,80.09
2023-11-02T20:50:27.612Z,80.19
2023-11-02T20:52:58.329Z,80.50
2023-11-02T20:55:29.005Z,80.78
2023-11-02T20:58:00.761Z,80.98
2023-11-02T21:00:39.949Z,81.29
2023-11-02T21:03:18.454Z,81.74
2023-11-02T21:05:49.946Z,82.24
2023-11-02T21:08:20.874Z,82.43
2023-11-02T21:10:51.632Z,82.49
2023-11-02T21:13:22.981Z,82.55
2023-11-02T21:15:53.732Z,82.73
2023-11-02T21:18:25.684Z,82.77
2023-11-02T21:20:56.749Z,82.88
2023-11-02T21:23:27.546Z,82.86
2023-11-02T21:25:58.453Z,82.99
2023-11-02T21:28:29.432Z,82.81
2023-11-02T21:31:00.265Z,83.09
2023-11-02T21:33:31.260Z,83.26
2023-11-02T21:36:02.699Z,83.28
2023-11-02T21:38:33.521Z,83.22
2023-11-02T21:41:04.729Z,83.31
2023-11-02T21:43:35.570Z,83.30
2023-11-02T21:46:07.042Z,83.57
2023-11-02T21:48:37.906Z,83.47
2023-11-02T21:51:09.269Z,83.47
2023-11-02T21:53:40.015Z,83.39
2023-11-02T21:56:11.574Z,83.22
2023-11-02T21:58:42.757Z,83.12
2023-11-02T22:01:16.847Z,82.90
2023-11-02T22:03:49.778Z,82.87
2023-11-02T22:06:21.710Z,82.81
2023-11-02T22:08:52.516Z,82.73
2023-11-02T22:11:23.265Z,82.71
2023-11-02T22:13:54.102Z,82.74
2023-11-02T22:16:24.878Z,82.67
2023-11-02T22:18:56.124Z,82.70
2023-11-02T22:21:28.325Z,82.67
2023-11-02T22:23:59.426Z,82.72
2023-11-02T22:26:30.424Z,82.79
2023-11-02T22:29:01.702Z,82.84
2023-11-02T22:31:32.445Z,82.78
2023-11-02T22:34:03.532Z,82.91
2023-11-02T22:36:35.341Z,83.04
2023-11-02T22:39:07.664Z,83.19
2023-11-02T22:41:44.626Z,83.19
2023-11-02T22:44:15.785Z,83.33
2023-11-02T22:46:46.671Z,83.29
2023-11-02T22:49:17.385Z,83.34
2023-11-02T22:51:50.590Z,83.33
2023-11-02T22:54:21.559Z,83.39
2023-11-02T22:56:52.252Z,83.37
2023-11-02T22:59:22.915Z,83.56
2023-11-02T23:01:57.483Z,83.54
2023-11-02T23:04:28.351Z,83.49
2023-11-02T23:06:59.314Z,83.49
2023-11-02T23:09:30.387Z,83.49
2023-11-02T23:12:01.617Z,83.62
2023-11-02T23:14:32.402Z,83.57
2023-11-02T23:17:03.372Z,83.50
2023-11-02T23:19:34.103Z,83.56
2023-11-02T23:22:06.030Z,83.47
2023-11-02T23:24:37.202Z,83.37
2023-11-02T23:27:08.368Z,83.43
2023-11-02T23:29:39.146Z,83.49
2023-11-02T23:32:10.717Z,83.48
2023-11-02T23:34:41.842Z,83.45
2023-11-02T23:37:12.855Z,83.56
2023-11-02T23:39:43.639Z,83.45
2023-11-02T23:42:15.950Z,83.39
2023-11-02T23:44:47.347Z,83.38
2023-11-02T23:47:17.982Z,83.25
2023-11-02T23:49:49.092Z,83.31
2023-11-02T23:52:20.323Z,83.28
2023-11-02T23:54:51.093Z,83.26
2023-11-02T23:57:21.908Z,83.35
2023-11-02T23:59:52.552Z,83.22
